Time;durP1;ratioP1;P1;durP2;ratioP2;P2;SDS_P1;SDS_P2;PMS_P1;PMS_P2;Temp;Humidity;BMP_temperature;BMP_pressure;BME280_temperature;BME280_humidity;BME280_pressure;Samples;Min_cycle;Max_cycle;Signal;HPM_P1;HPM_P2
2021/07/03 00:00:36;;;;;;;4.50;2.70;;;;;;;16.94;95.23;101139.06;5014178;28;20808;-69
2021/07/03 00:03:02;;;;;;;3.47;2.07;;;;;;;16.86;94.76;101142.63;5013882;28;20997;-71
2021/07/03 00:05:29;;;;;;;3.80;2.00;;;;;;;16.81;93.90;101151.81;5013766;28;20860;-70
2021/07/03 00:07:55;;;;;;;3.60;1.80;;;;;;;16.75;94.15;101144.94;5013973;28;20448;-71
2021/07/03 00:10:22;;;;;;;3.10;2.20;;;;;;;16.74;95.05;101145.28;5014063;28;20455;-71
2021/07/03 00:12:50;;;;;;;4.90;2.90;;;;;;;16.69;96.56;101156.34;5013709;28;20475;-70
2021/07/03 00:15:21;;;;;;;3.40;2.27;;;;;;;16.67;97.51;101156.69;5014092;28;20444;-71
2021/07/03 00:17:47;;;;;;;6.70;3.60;;;;;;;16.62;98.51;101151.41;5013919;28;20521;-71
2021/07/03 00:20:14;;;;;;;3.70;2.73;;;;;;;16.63;98.81;101147.53;5013820;28;20451;-71
2021/07/03 00:22:41;;;;;;;6.43;1.97;;;;;;;16.64;100.00;101149.13;5013705;28;20487;-70
2021/07/03 00:25:08;;;;;;;3.63;2.33;;;;;;;16.67;99.93;101151.22;5013799;28;20452;-71
2021/07/03 00:27:35;;;;;;;5.13;2.80;;;;;;;16.70;100.00;101145.09;5013804;28;20454;-71
2021/07/03 00:30:03;;;;;;;4.23;2.67;;;;;;;16.69;100.00;101148.16;5013434;28;20476;-71
2021/07/03 00:32:29;;;;;;;7.57;3.70;;;;;;;16.63;100.00;101148.34;5013639;28;20464;-70
2021/07/03 00:34:56;;;;;;;5.07;3.83;;;;;;;16.68;100.00;101150.09;5013642;28;20443;-70
2021/07/03 00:37:22;;;;;;;5.40;2.90;;;;;;;16.68;100.00;101146.56;5013670;28;20451;-70
2021/07/03 00:39:49;;;;;;;4.20;3.17;;;;;;;16.70;100.00;101153.31;5013838;28;20459;-71
2021/07/03 00:42:15;;;;;;;6.27;2.93;;;;;;;16.67;100.00;101153.97;5013124;28;20475;-70
2021/07/03 00:44:42;;;;;;;6.37;3.10;;;;;;;16.63;100.00;101153.00;5013810;28;20436;-70
2021/07/03 00:47:10;;;;;;;4.97;2.93;;;;;;;16.60;100.00;101159.13;5013613;28;20440;-71
2021/07/03 00:49:36;;;;;;;5.37;3.03;;;;;;;16.60;100.00;101165.41;5013514;28;20451;-69
2021/07/03 00:52:04;;;;;;;6.10;3.27;;;;;;;16.58;100.00;101159.47;5013170;28;20447;-70
2021/07/03 00:54:31;;;;;;;5.13;3.40;;;;;;;16.58;100.00;101151.25;5013138;28;20963;-69
2021/07/03 00:57:04;;;;;;;8.17;3.97;;;;;;;16.59;100.00;101157.53;5013153;28;20970;-70
2021/07/03 00:59:33;;;;;;;7.83;2.80;;;;;;;16.51;100.00;101150.16;5013423;28;20503;-71
2021/07/03 01:01:59;;;;;;;5.00;3.17;;;;;;;16.46;100.00;101151.13;5013284;28;20444;-71
2021/07/03 01:04:27;;;;;;;4.87;2.90;;;;;;;16.44;98.64;101150.66;5013253;28;20484;-69
2021/07/03 01:06:54;;;;;;;4.83;3.20;;;;;;;16.46;99.13;101140.19;5013358;28;20448;-71
2021/07/03 01:09:20;;;;;;;7.10;3.20;;;;;;;16.35;100.00;101153.44;5013334;28;20451;-70
2021/07/03 01:11:47;;;;;;;6.30;3.97;;;;;;;16.38;100.00;101135.56;5016499;28;20452;-71
2021/07/03 01:14:13;;;;;;;5.00;3.00;;;;;;;16.34;100.00;101143.63;5017143;28;20464;-69
2021/07/03 01:16:42;;;;;;;4.80;3.10;;;;;;;16.33;100.00;101149.41;5017201;28;20436;-70
2021/07/03 01:19:09;;;;;;;6.27;3.20;;;;;;;16.29;100.00;101149.28;5017147;28;20784;-70
2021/07/03 01:21:37;;;;;;;6.93;3.00;;;;;;;16.31;100.00;101144.28;5017156;28;20459;-70
2021/07/03 01:24:06;;;;;;;9.10;3.63;;;;;;;16.29;100.00;101143.81;5016876;28;20487;-71
2021/07/03 01:26:41;;;;;;;8.07;4.27;;;;;;;16.30;100.00;101148.13;5016664;28;20807;-70
2021/07/03 01:29:07;;;;;;;7.67;3.40;;;;;;;16.31;100.00;101151.66;5016999;28;20436;-70
2021/07/03 01:31:34;;;;;;;7.67;3.50;;;;;;;16.30;100.00;101150.06;5016886;28;20447;-70
2021/07/03 01:34:01;;;;;;;16.83;3.50;;;;;;;16.22;100.00;101131.75;5016768;28;20471;-71
2021/07/03 01:36:27;;;;;;;5.10;3.47;;;;;;;16.23;100.00;101139.63;5016858;28;20440;-70
2021/07/03 01:38:54;;;;;;;7.63;3.80;;;;;;;16.21;100.00;101133.69;5017021;28;20439;-70
2021/07/03 01:41:21;;;;;;;7.10;4.13;;;;;;;16.23;100.00;101139.63;5016701;28;20456;-70
2021/07/03 01:43:48;;;;;;;9.23;3.87;;;;;;;16.22;100.00;101140.75;5016530;28;20487;-71
2021/07/03 01:46:14;;;;;;;4.33;3.53;;;;;;;16.20;99.58;101143.00;5016674;28;20448;-70
2021/07/03 01:48:41;;;;;;;5.03;3.03;;;;;;;16.14;99.24;101141.56;5016334;28;20984;-70
2021/07/03 01:51:07;;;;;;;6.13;2.80;;;;;;;16.07;99.86;101142.09;5016525;28;20451;-70
2021/07/03 01:53:34;;;;;;;5.73;2.87;;;;;;;16.06;100.00;101134.19;5016018;28;20486;-69
2021/07/03 01:56:00;;;;;;;9.10;3.80;;;;;;;16.02;100.00;101135.97;5016690;28;20447;-70
2021/07/03 01:58:29;;;;;;;8.73;4.23;;;;;;;16.03;100.00;101130.19;5016669;28;20440;-69
2021/07/03 02:00:58;;;;;;;4.70;3.00;;;;;;;16.05;100.00;101132.59;5016399;28;20879;-70
2021/07/03 02:03:25;;;;;;;6.40;4.40;;;;;;;16.03;100.00;101130.19;5016203;28;20483;-68
2021/07/03 02:05:52;;;;;;;7.60;4.23;;;;;;;16.04;100.00;101131.00;5015932;28;20972;-70
2021/07/03 02:08:19;;;;;;;9.37;4.17;;;;;;;16.02;100.00;101123.09;5016110;28;20455;-70
2021/07/03 02:10:45;;;;;;;4.70;3.23;;;;;;;16.00;100.00;101121.84;5016230;28;20466;-70
2021/07/03 02:13:12;;;;;;;7.00;4.40;;;;;;;15.97;100.00;101119.75;5016047;28;20456;-70
2021/07/03 02:15:40;;;;;;;10.30;4.03;;;;;;;16.01;100.00;101126.97;5016078;28;20444;-69
2021/07/03 02:18:06;;;;;;;5.37;3.20;;;;;;;15.99;100.00;101123.75;5016020;28;20432;-71
2021/07/03 02:20:33;;;;;;;8.47;4.73;;;;;;;16.00;100.00;101136.28;5015887;28;20444;-70
2021/07/03 02:23:00;;;;;;;7.67;4.37;;;;;;;15.96;100.00;101131.81;5015375;28;20467;-69
2021/07/03 02:25:26;;;;;;;7.90;3.37;;;;;;;15.95;100.00;101131.00;5015890;28;20463;-70
2021/07/03 02:27:53;;;;;;;5.13;3.73;;;;;;;15.92;100.00;101128.13;5015817;28;20435;-70
2021/07/03 02:30:20;;;;;;;10.30;4.10;;;;;;;15.95;100.00;101122.81;5015819;28;20450;-70
2021/07/03 02:32:48;;;;;;;7.80;3.90;;;;;;;15.93;100.00;101124.25;5015762;28;20464;-70
2021/07/03 02:35:16;;;;;;;6.77;3.57;;;;;;;15.93;100.00;101113.31;5015642;28;20447;-69
2021/07/03 02:37:43;;;;;;;8.03;3.70;;;;;;;15.91;100.00;101121.84;5015697;28;20445;-70
2021/07/03 02:40:13;;;;;;;5.50;3.70;;;;;;;15.92;100.00;101123.44;5015601;28;20825;-71
2021/07/03 02:42:40;;;;;;;5.47;2.90;;;;;;;15.88;100.00;101120.56;5015728;28;20460;-71
2021/07/03 02:45:09;;;;;;;10.03;3.67;;;;;;;15.86;100.00;101116.56;5015460;28;20491;-71
2021/07/03 02:47:35;;;;;;;8.17;4.80;;;;;;;15.76;100.00;101114.13;5015490;28;20471;-70
2021/07/03 02:50:04;;;;;;;5.90;3.57;;;;;;;15.69;100.00;101114.63;5015418;28;20436;-71
2021/07/03 02:52:31;;;;;;;9.57;5.23;;;;;;;15.60;100.00;101117.34;5015008;28;21000;-70
2021/07/03 02:54:57;;;;;;;6.40;3.47;;;;;;;15.61;100.00;101115.41;5015297;28;20448;-72
2021/07/03 02:57:24;;;;;;;7.10;3.80;;;;;;;15.64;100.00;101117.53;5015017;28;20451;-70
2021/07/03 02:59:50;;;;;;;5.93;3.10;;;;;;;15.64;100.00;101118.34;5015188;28;20455;-70
2021/07/03 03:02:17;;;;;;;5.60;3.77;;;;;;;15.64;100.00;101123.00;5015098;28;20495;-70
2021/07/03 03:04:43;;;;;;;7.83;3.50;;;;;;;15.66;100.00;101126.19;5015112;28;20486;-69
2021/07/03 03:07:11;;;;;;;6.03;3.70;;;;;;;15.65;100.00;101116.41;5015104;28;20440;-69
2021/07/03 03:09:38;;;;;;;5.50;2.80;;;;;;;15.65;100.00;101116.41;5015123;28;20444;-70
2021/07/03 03:12:05;;;;;;;10.20;4.00;;;;;;;15.69;100.00;101120.09;5014621;28;20464;-70
2021/07/03 03:14:31;;;;;;;8.00;4.23;;;;;;;15.67;100.00;101110.59;5014721;28;20435;-69
2021/07/03 03:16:58;;;;;;;10.03;4.57;;;;;;;15.69;100.00;101109.19;5014695;28;20455;-71
2021/07/03 03:19:24;;;;;;;17.70;4.27;;;;;;;15.64;100.00;101114.81;5014953;28;20844;-71
2021/07/03 03:21:51;;;;;;;7.17;3.90;;;;;;;15.63;100.00;101105.78;5014799;28;20448;-71
2021/07/03 03:24:20;;;;;;;5.10;2.97;;;;;;;15.64;100.00;101112.88;5014554;28;20484;-69
2021/07/03 03:26:46;;;;;;;12.40;4.40;;;;;;;15.67;100.00;101116.91;5014691;28;20440;-70
2021/07/03 03:29:13;;;;;;;5.63;3.67;;;;;;;15.67;100.00;101119.63;5014394;28;20455;-70
2021/07/03 03:31:39;;;;;;;7.20;3.80;;;;;;;15.63;100.00;101115.91;5014718;28;20447;-70
2021/07/03 03:34:06;;;;;;;7.60;4.60;;;;;;;15.63;100.00;101118.63;5013489;28;20472;-71
2021/07/03 03:36:32;;;;;;;6.23;3.70;;;;;;;15.64;100.00;101123.00;5014270;28;20950;-70
2021/07/03 03:38:59;;;;;;;5.67;3.67;;;;;;;15.63;100.00;101124.09;5014607;28;20462;-71
2021/07/03 03:41:26;;;;;;;10.83;3.63;;;;;;;15.58;100.00;101126.97;5014200;28;20966;-69
2021/07/03 03:43:53;;;;;;;9.77;4.37;;;;;;;15.61;100.00;101123.59;5013952;28;20484;-71
2021/07/03 03:46:19;;;;;;;7.93;4.20;;;;;;;15.63;100.00;101122.16;5014669;28;20443;-71
2021/07/03 03:48:46;;;;;;;7.30;4.80;;;;;;;15.62;100.00;101122.47;5014500;28;20443;-71
2021/07/03 03:51:12;;;;;;;7.67;4.50;;;;;;;15.61;100.00;101129.06;5013924;28;20815;-72
2021/07/03 03:53:39;;;;;;;9.67;4.17;;;;;;;15.63;100.00;101124.09;5014054;28;20977;-71
2021/07/03 03:56:05;;;;;;;7.87;4.47;;;;;;;15.65;100.00;101119.13;5013953;28;20451;-71
2021/07/03 03:58:33;;;;;;;8.93;4.93;;;;;;;15.65;100.00;101121.88;5014381;28;20459;-69
2021/07/03 04:01:00;;;;;;;6.27;4.10;;;;;;;15.65;100.00;101113.66;5014266;28;20475;-70
2021/07/03 04:03:26;;;;;;;7.63;3.93;;;;;;;15.68;100.00;101117.69;5013993;28;20464;-68
2021/07/03 04:05:52;;;;;;;8.30;4.60;;;;;;;15.75;100.00;101120.72;5014345;28;20447;-69
2021/07/03 04:08:19;;;;;;;5.00;4.20;;;;;;;15.78;100.00;101115.44;5013801;28;20461;-69
2021/07/03 04:10:45;;;;;;;10.43;3.40;;;;;;;15.85;100.00;101118.50;5013841;28;20467;-69
2021/07/03 04:13:12;;;;;;;7.00;4.00;;;;;;;15.88;100.00;101123.28;5013931;28;20468;-69
2021/07/03 04:15:40;;;;;;;9.40;4.90;;;;;;;15.90;100.00;101122.97;5013935;28;20440;-69
2021/07/03 04:18:06;;;;;;;8.43;4.73;;;;;;;15.97;100.00;101120.53;5013745;28;20451;-69
2021/07/03 04:20:33;;;;;;;6.27;3.70;;;;;;;15.99;100.00;101118.31;5014016;28;20448;-69
2021/07/03 04:22:59;;;;;;;6.70;3.73;;;;;;;16.03;100.00;101116.53;5013776;28;20467;-69
2021/07/03 04:25:26;;;;;;;5.30;4.03;;;;;;;16.06;100.00;101109.59;5013606;28;20484;-68
2021/07/03 04:27:53;;;;;;;9.70;5.10;;;;;;;16.07;100.00;101114.75;5013758;28;20522;-69
2021/07/03 04:30:20;;;;;;;8.07;4.37;;;;;;;16.08;100.00;101124.56;5013768;28;20444;-69
2021/07/03 04:32:48;;;;;;;6.50;3.07;;;;;;;16.16;100.00;101128.41;5013610;28;20463;-70
2021/07/03 04:35:16;;;;;;;8.73;4.90;;;;;;;16.15;100.00;101127.56;5013675;28;20455;-69
2021/07/03 04:37:43;;;;;;;6.13;4.10;;;;;;;16.21;100.00;101130.97;5013608;28;20455;-68
2021/07/03 04:40:11;;;;;;;7.47;4.13;;;;;;;16.23;100.00;101127.88;5013306;28;20828;-68
2021/07/03 04:42:38;;;;;;;8.93;4.30;;;;;;;16.28;100.00;101125.78;5014880;28;20487;-68
2021/07/03 04:45:06;;;;;;;7.63;3.80;;;;;;;16.24;100.00;101127.56;5013439;28;20843;-68
2021/07/03 04:47:33;;;;;;;8.30;3.57;;;;;;;16.28;100.00;101125.78;5013205;28;20459;-68
2021/07/03 04:50:00;;;;;;;6.40;3.70;;;;;;;16.39;100.00;101137.97;5013439;28;20440;-69
2021/07/03 04:52:28;;;;;;;8.47;4.60;;;;;;;16.53;100.00;101128.75;5013648;28;20464;-69
2021/07/03 04:54:54;;;;;;;8.03;4.47;;;;;;;16.65;100.00;101124.22;5013431;28;20440;-68
2021/07/03 04:57:21;;;;;;;7.03;4.80;;;;;;;16.73;100.00;101125.31;5013659;28;20573;-68
2021/07/03 04:59:47;;;;;;;9.03;4.40;;;;;;;16.80;100.00;101133.00;5013399;28;20448;-69
2021/07/03 05:02:14;;;;;;;13.67;4.77;;;;;;;16.88;100.00;101123.97;5013472;28;20467;-69
2021/07/03 05:04:42;;;;;;;11.50;5.83;;;;;;;16.93;100.00;101126.50;5013245;28;20874;-69
2021/07/03 05:07:11;;;;;;;9.20;4.00;;;;;;;16.95;100.00;101126.16;5013292;28;20506;-68
2021/07/03 05:09:38;;;;;;;7.60;4.53;;;;;;;17.02;100.00;101126.47;5013101;28;20821;-67
2021/07/03 05:12:05;;;;;;;5.17;3.60;;;;;;;17.01;100.00;101135.81;5012987;28;20455;-73
2021/07/03 05:14:32;;;;;;;7.03;4.17;;;;;;;17.04;100.00;101126.91;5013397;28;20444;-72
2021/07/03 05:16:59;;;;;;;11.00;5.30;;;;;;;17.06;100.00;101127.41;5013277;28;20453;-70
2021/07/03 05:19:25;;;;;;;15.40;5.33;;;;;;;17.03;100.00;101128.84;5012873;28;20436;-69
2021/07/03 05:21:51;;;;;;;11.50;6.07;;;;;;;16.90;100.00;101121.69;5013162;28;20459;-69
2021/07/03 05:24:20;;;;;;;6.50;4.10;;;;;;;16.80;100.00;101131.06;5013070;28;20502;-68
2021/07/03 05:26:46;;;;;;;9.87;5.37;;;;;;;16.89;100.00;101131.84;5013199;28;20432;-69
2021/07/03 05:29:12;;;;;;;12.10;4.70;;;;;;;16.96;100.00;101133.28;5013070;28;20448;-69
2021/07/03 05:31:39;;;;;;;8.97;5.53;;;;;;;17.00;100.00;101129.53;5013215;28;20450;-69
2021/07/03 05:34:05;;;;;;;13.23;5.53;;;;;;;17.04;100.00;101132.38;5012701;28;20977;-69
2021/07/03 05:36:32;;;;;;;13.43;3.97;;;;;;;17.09;100.00;101138.50;5013070;28;20527;-69
2021/07/03 05:39:03;;;;;;;8.20;4.27;;;;;;;17.12;100.00;101137.00;5013004;28;20442;-69
2021/07/03 05:41:33;;;;;;;5.67;3.80;;;;;;;17.13;100.00;101139.44;5013073;28;20483;-69
2021/07/03 05:44:00;;;;;;;13.80;6.50;;;;;;;17.23;99.00;101138.25;5012831;28;20575;-68
2021/07/03 05:46:26;;;;;;;7.87;5.37;;;;;;;17.28;98.92;101140.78;5013038;28;20444;-68
2021/07/03 05:48:54;;;;;;;10.33;5.00;;;;;;;17.30;98.77;101141.25;5012907;28;20451;-69
2021/07/03 05:51:21;;;;;;;8.50;4.00;;;;;;;17.44;99.18;101143.72;5012655;28;20472;-69
2021/07/03 05:53:48;;;;;;;11.67;4.40;;;;;;;17.57;98.86;101147.31;5013073;28;20476;-68
2021/07/03 05:56:14;;;;;;;12.93;4.83;;;;;;;17.61;97.97;101140.84;5013673;28;20439;-69
2021/07/03 05:58:42;;;;;;;12.60;5.70;;;;;;;17.71;97.61;101147.06;5016118;28;20945;-69
2021/07/03 06:01:08;;;;;;;8.23;4.17;;;;;;;17.80;97.57;101148.63;5016601;28;20440;-69
2021/07/03 06:03:35;;;;;;;8.67;4.67;;;;;;;17.93;97.24;101143.19;5016273;28;20471;-68
2021/07/03 06:06:01;;;;;;;4.83;3.90;;;;;;;18.03;96.81;101145.53;5016240;28;20614;-69
2021/07/03 06:08:28;;;;;;;8.00;4.70;;;;;;;18.14;96.59;101144.75;5016148;28;20452;-69
2021/07/03 06:10:54;;;;;;;11.30;6.77;;;;;;;18.20;95.89;101142.59;5016080;28;20467;-68
2021/07/03 06:13:21;;;;;;;11.00;5.50;;;;;;;18.25;95.86;101150.63;5016142;28;20472;-67
2021/07/03 06:15:48;;;;;;;8.30;4.77;;;;;;;18.36;94.52;101148.22;5016129;28;20802;-69
2021/07/03 06:18:15;;;;;;;8.63;4.73;;;;;;;18.40;94.14;101149.16;5015758;28;20948;-69
2021/07/03 06:20:41;;;;;;;17.30;4.87;;;;;;;18.36;93.66;101140.00;5015705;28;20945;-70
2021/07/03 06:23:08;;;;;;;7.40;4.50;;;;;;;18.31;93.90;101143.75;5015636;28;21000;-69
2021/07/03 06:25:34;;;;;;;10.97;5.20;;;;;;;18.25;94.17;101139.66;5015471;28;20851;-68
2021/07/03 06:28:01;;;;;;;7.17;3.77;;;;;;;18.25;94.92;101133.34;5015611;28;20818;-69
2021/07/03 06:30:27;;;;;;;7.13;4.17;;;;;;;18.34;95.27;101136.81;5015508;28;20937;-69
2021/07/03 06:32:55;;;;;;;3.73;3.23;;;;;;;18.36;94.68;101138.06;5015361;28;20459;-69
2021/07/03 06:35:21;;;;;;;7.70;4.37;;;;;;;18.47;94.17;101141.16;5015774;28;20444;-69
2021/07/03 06:37:48;;;;;;;7.77;4.63;;;;;;;18.48;94.91;101129.06;5015747;28;20458;-69
2021/07/03 06:40:14;;;;;;;11.13;4.50;;;;;;;18.55;94.65;101142.19;5015640;28;20439;-69
2021/07/03 06:42:41;;;;;;;11.33;5.60;;;;;;;18.65;94.81;101141.75;5015558;28;20470;-72
2021/07/03 06:45:08;;;;;;;5.83;4.13;;;;;;;18.70;94.28;101152.53;5015582;28;20480;-71
2021/07/03 06:47:35;;;;;;;6.80;4.00;;;;;;;18.73;91.78;101140.88;5015555;28;20461;-71
2021/07/03 06:50:03;;;;;;;7.43;4.57;;;;;;;18.78;91.16;101146.16;5015641;28;20450;-70
2021/07/03 06:52:30;;;;;;;7.87;3.90;;;;;;;18.84;90.78;101139.28;5015399;28;20475;-68
2021/07/03 06:54:56;;;;;;;10.30;4.07;;;;;;;18.95;90.79;101133.31;5015315;28;20462;-68
2021/07/03 06:57:23;;;;;;;5.00;3.60;;;;;;;19.02;89.17;101136.28;5015307;28;20447;-69
2021/07/03 06:59:49;;;;;;;9.30;4.00;;;;;;;18.95;88.77;101139.63;5015270;28;20436;-68
2021/07/03 07:02:16;;;;;;;6.03;3.60;;;;;;;19.02;88.15;101139.03;5014892;28;20472;-68
2021/07/03 07:04:43;;;;;;;6.90;3.43;;;;;;;19.11;85.96;101143.25;5015239;28;20554;-68
2021/07/03 07:07:11;;;;;;;5.70;3.47;;;;;;;19.19;85.48;101143.50;5014665;28;20447;-69
2021/07/03 07:09:37;;;;;;;5.73;3.30;;;;;;;19.27;85.82;101131.56;5014584;28;20448;-68
2021/07/03 07:12:04;;;;;;;7.00;3.70;;;;;;;19.34;85.93;101131.78;5014640;28;20456;-68
2021/07/03 07:14:31;;;;;;;4.03;2.87;;;;;;;19.42;86.86;101139.88;5014997;28;20840;-68
2021/07/03 07:16:57;;;;;;;6.40;3.80;;;;;;;19.46;85.13;101131.75;5015020;28;20440;-68
2021/07/03 07:19:24;;;;;;;7.07;4.00;;;;;;;19.46;84.58;101134.50;5014883;28;20448;-68
2021/07/03 07:21:50;;;;;;;6.93;3.67;;;;;;;19.51;84.99;101134.25;5014948;28;20447;-69
2021/07/03 07:24:18;;;;;;;5.80;3.13;;;;;;;19.56;85.82;101134.00;5014690;28;20471;-69
2021/07/03 07:26:46;;;;;;;5.03;3.20;;;;;;;19.58;84.24;101128.19;5014599;28;20484;-68
2021/07/03 07:29:12;;;;;;;5.97;3.33;;;;;;;19.57;83.61;101129.31;5014618;28;20839;-68
2021/07/03 07:31:39;;;;;;;5.90;3.43;;;;;;;19.70;82.43;101124.59;5014897;28;20440;-68
2021/07/03 07:34:06;;;;;;;7.90;4.10;;;;;;;19.79;83.11;101137.06;5014498;28;20464;-69
2021/07/03 07:36:32;;;;;;;6.00;3.50;;;;;;;19.83;83.89;101137.97;5014584;28;20483;-68
2021/07/03 07:38:59;;;;;;;5.70;3.80;;;;;;;19.89;81.76;101128.31;5014299;28;20450;-67
2021/07/03 07:41:26;;;;;;;4.20;2.93;;;;;;;19.91;82.96;101123.25;5014489;28;20448;-71
2021/07/03 07:43:53;;;;;;;9.57;4.03;;;;;;;20.04;81.83;101134.19;5014124;28;20467;-71
2021/07/03 07:46:19;;;;;;;8.07;4.30;;;;;;;20.17;82.54;101127.47;5014422;28;20479;-71
2021/07/03 07:48:46;;;;;;;7.03;3.70;;;;;;;20.29;80.23;101123.84;5014473;28;20455;-68
2021/07/03 07:51:12;;;;;;;8.10;4.23;;;;;;;20.28;79.95;101127.75;5014363;28;20448;-68
2021/07/03 07:53:39;;;;;;;7.27;3.50;;;;;;;20.21;80.06;101127.56;5014259;28;20468;-68
2021/07/03 07:56:06;;;;;;;5.20;3.70;;;;;;;20.19;79.96;101121.59;5013987;28;20937;-69
2021/07/03 07:58:33;;;;;;;5.77;3.30;;;;;;;20.17;79.92;101116.47;5014291;28;20809;-69
2021/07/03 08:01:00;;;;;;;4.90;2.73;;;;;;;20.28;80.33;101116.75;5014281;28;20443;-68
2021/07/03 08:03:26;;;;;;;7.57;4.00;;;;;;;20.44;80.79;101116.75;5013972;28;20459;-68
2021/07/03 08:05:53;;;;;;;6.70;3.50;;;;;;;20.59;80.86;101114.03;5014035;28;20488;-67
2021/07/03 08:08:19;;;;;;;7.90;4.43;;;;;;;20.80;80.72;101127.50;5014076;28;20447;-69
2021/07/03 08:10:46;;;;;;;7.70;4.17;;;;;;;20.96;79.73;101112.91;5013688;28;20814;-68
2021/07/03 08:13:12;;;;;;;8.40;4.43;;;;;;;21.01;78.41;101118.16;5013901;28;20468;-68
2021/07/03 08:15:40;;;;;;;6.57;3.70;;;;;;;21.13;78.79;101118.84;5013612;28;20432;-68
2021/07/03 08:18:07;;;;;;;6.07;4.43;;;;;;;21.14;77.62;101112.16;5013923;28;20447;-69
2021/07/03 08:20:34;;;;;;;5.43;3.33;;;;;;;21.26;75.62;101115.97;5013852;28;20444;-66
2021/07/03 08:23:01;;;;;;;6.27;3.93;;;;;;;21.21;76.24;101114.28;5013709;28;20981;-69
2021/07/03 08:25:28;;;;;;;9.10;4.73;;;;;;;21.22;76.20;101126.91;5013706;28;20492;-68
2021/07/03 08:27:55;;;;;;;10.70;3.70;;;;;;;21.18;76.66;101115.00;5013870;28;20444;-69
2021/07/03 08:30:22;;;;;;;5.40;3.27;;;;;;;21.20;75.88;101111.88;5013933;28;20448;-68
2021/07/03 08:32:52;;;;;;;6.50;3.67;;;;;;;21.08;74.64;101115.56;5013759;28;20843;-70
2021/07/03 08:35:18;;;;;;;9.57;4.53;;;;;;;21.14;74.74;101117.66;5013860;28;20440;-69
2021/07/03 08:37:45;;;;;;;5.53;3.13;;;;;;;21.42;76.59;101116.72;5013712;28;20444;-68
2021/07/03 08:40:13;;;;;;;6.63;3.53;;;;;;;21.53;75.37;101115.00;5013408;28;20966;-69
2021/07/03 08:42:40;;;;;;;9.30;3.53;;;;;;;21.51;73.78;101122.00;5013309;28;20455;-69
2021/07/03 08:45:08;;;;;;;4.63;3.10;;;;;;;21.39;75.73;101121.00;5013471;28;20440;-69
2021/07/03 08:47:39;;;;;;;8.33;4.20;;;;;;;21.40;76.79;101113.53;5013467;28;20440;-69
2021/07/03 08:50:08;;;;;;;6.30;3.33;;;;;;;21.44;76.64;101100.63;5013141;28;20444;-69
2021/07/03 08:52:35;;;;;;;9.10;3.63;;;;;;;21.55;76.22;101100.84;5013428;28;20460;-69
2021/07/03 08:55:11;;;;;;;5.60;3.20;;;;;;;21.71;76.29;101090.53;5013473;28;20829;-68
2021/07/03 08:57:42;;;;;;;6.27;3.00;;;;;;;21.82;73.49;101099.00;5013499;28;20440;-69
2021/07/03 09:00:10;;;;;;;5.93;3.57;;;;;;;21.80;73.12;101087.53;5013452;28;20432;-69
2021/07/03 09:02:40;;;;;;;4.70;3.63;;;;;;;21.73;74.15;101095.66;5013319;28;20456;-68
2021/07/03 09:05:22;;;;;;;8.10;3.30;;;;;;;21.59;73.88;101093.44;5013540;28;20443;-68
2021/07/03 09:07:50;;;;;;;8.43;3.30;;;;;;;21.60;74.91;101092.25;5013131;28;20805;-69
2021/07/03 09:10:21;;;;;;;9.33;4.70;;;;;;;21.60;76.69;101086.75;5013286;28;20450;-68
2021/07/03 09:12:49;;;;;;;6.60;3.47;;;;;;;21.79;74.40;101083.19;5013111;28;20853;-69
2021/07/03 09:15:18;;;;;;;6.10;3.10;;;;;;;21.92;74.23;101088.19;5013238;28;20471;-68
2021/07/03 09:17:49;;;;;;;5.90;3.27;;;;;;;22.07;72.70;101083.72;5013467;28;20440;-69
2021/07/03 09:20:27;;;;;;;6.50;3.20;;;;;;;22.13;70.48;101081.47;5013418;28;20547;-70
2021/07/03 09:23:03;;;;;;;5.50;3.30;;;;;;;22.26;71.82;101069.06;5013105;28;20483;-71
2021/07/03 09:25:29;;;;;;;5.63;3.63;;;;;;;22.49;71.95;101074.59;5013314;28;20506;-68
2021/07/03 09:28:06;;;;;;;5.03;3.87;;;;;;;22.66;68.87;101073.25;5013208;28;20439;-68
2021/07/03 09:30:32;;;;;;;7.10;2.97;;;;;;;22.67;68.15;101072.91;5013102;28;20799;-69
2021/07/03 09:32:59;;;;;;;6.47;3.77;;;;;;;22.60;69.93;101072.00;5017656;28;20491;-68
2021/07/03 09:35:27;;;;;;;5.73;3.10;;;;;;;22.56;69.50;101080.22;5016609;28;20467;-70
2021/07/03 09:38:00;;;;;;;6.07;3.13;;;;;;;22.31;69.22;101077.06;5016416;28;20463;-69
2021/07/03 09:40:29;;;;;;;6.13;2.80;;;;;;;22.20;69.94;101070.56;5016489;28;20937;-68
2021/07/03 09:43:04;;;;;;;5.63;3.17;;;;;;;22.15;68.71;101073.63;5016710;28;20467;-68
2021/07/03 09:45:30;;;;;;;5.73;3.60;;;;;;;22.08;67.55;101065.19;5016673;28;20555;-68
2021/07/03 09:48:07;;;;;;;5.33;3.37;;;;;;;22.25;69.42;101067.50;5016595;28;20450;-68
2021/07/03 09:50:35;;;;;;;5.73;3.23;;;;;;;22.20;69.26;101062.28;5016717;28;20427;-68
2021/07/03 09:53:02;;;;;;;3.80;2.67;;;;;;;22.22;67.72;101065.44;5016248;28;20854;-68
2021/07/03 09:55:29;;;;;;;4.80;2.90;;;;;;;22.23;68.29;101060.75;5016481;28;20531;-69
2021/07/03 09:57:55;;;;;;;6.53;4.50;;;;;;;22.32;68.07;101061.31;5016459;28;20442;-69
2021/07/03 10:00:22;;;;;;;4.70;3.37;;;;;;;22.26;65.86;101069.06;5015803;28;20465;-67
2021/07/03 10:02:49;;;;;;;4.03;2.83;;;;;;;22.14;66.07;101063.75;5015639;28;20475;-69
2021/07/03 10:05:19;;;;;;;3.60;2.53;;;;;;;22.18;66.85;101061.88;5016221;28;20502;-69
2021/07/03 10:07:49;;;;;;;3.70;2.60;;;;;;;22.27;69.80;101059.66;5016318;28;20447;-69
2021/07/03 10:10:19;;;;;;;4.57;3.37;;;;;;;22.31;69.25;101055.00;5016358;28;20428;-69
2021/07/03 10:12:51;;;;;;;3.87;2.80;;;;;;;22.42;68.80;101055.94;5015844;28;20476;-68
2021/07/03 10:15:27;;;;;;;3.63;2.90;;;;;;;22.47;67.68;101054.84;5016208;28;20431;-68
2021/07/03 10:17:54;;;;;;;5.80;3.30;;;;;;;22.55;67.13;101047.47;5015607;28;20455;-69
2021/07/03 10:20:20;;;;;;;5.27;3.57;;;;;;;22.41;66.30;101056.31;5016126;28;20446;-69
2021/07/03 10:22:56;;;;;;;4.40;2.97;;;;;;;22.27;65.66;101043.09;5015949;28;20472;-69
2021/07/03 10:25:32;;;;;;;5.10;3.30;;;;;;;22.26;66.57;101046.19;5016437;28;20443;-68
2021/07/03 10:28:00;;;;;;;4.60;3.67;;;;;;;22.47;67.30;101049.31;5015979;28;20806;-67
2021/07/03 10:30:28;;;;;;;3.93;3.40;;;;;;;22.56;65.13;101049.06;5015176;28;20464;-70
2021/07/03 10:32:56;;;;;;;3.90;3.30;;;;;;;22.70;64.99;101026.38;5015614;28;20484;-69
2021/07/03 10:35:23;;;;;;;6.60;3.00;;;;;;;22.95;66.46;101029.50;5015433;28;20468;-69
2021/07/03 10:37:50;;;;;;;4.30;3.10;;;;;;;23.05;63.60;101037.13;5015721;28;20468;-69
2021/07/03 10:40:19;;;;;;;4.57;2.73;;;;;;;23.26;63.48;101034.66;5015180;28;20464;-68
2021/07/03 10:42:46;;;;;;;4.20;2.50;;;;;;;23.45;62.48;101038.41;5015466;28;20470;-68
2021/07/03 10:45:15;;;;;;;3.33;2.60;;;;;;;23.54;62.78;101038.91;5015266;28;20475;-68
2021/07/03 10:47:42;;;;;;;5.10;2.73;;;;;;;23.56;60.28;101034.59;5015257;28;21013;-68
2021/07/03 10:50:19;;;;;;;3.47;3.17;;;;;;;23.64;59.78;101038.22;5015082;28;20499;-70
2021/07/03 10:52:46;;;;;;;5.53;3.10;;;;;;;23.74;59.54;101034.03;5015536;28;20471;-68
2021/07/03 10:55:13;;;;;;;4.60;3.00;;;;;;;23.81;58.65;101039.63;5014241;28;20447;-70
2021/07/03 10:57:43;;;;;;;3.83;2.70;;;;;;;23.72;59.62;101033.59;5015165;28;20443;-68
2021/07/03 11:00:12;;;;;;;4.13;2.40;;;;;;;23.74;61.42;101034.81;5015043;28;20464;-69
2021/07/03 11:02:39;;;;;;;3.57;2.33;;;;;;;23.63;59.32;101034.66;5015500;28;20471;-69
2021/07/03 11:05:14;;;;;;;4.00;2.97;;;;;;;23.45;58.70;101033.69;5014538;28;20469;-68
2021/07/03 11:07:45;;;;;;;2.90;2.00;;;;;;;23.57;60.33;101025.13;5015404;28;20489;-69
2021/07/03 11:10:14;;;;;;;8.40;3.00;;;;;;;23.69;58.86;101021.34;5015071;28;20436;-69
2021/07/03 11:12:47;;;;;;;4.27;2.33;;;;;;;23.73;54.42;101019.41;5014748;28;20479;-69
2021/07/03 11:15:15;;;;;;;4.40;2.10;;;;;;;23.81;54.85;101012.75;5014988;28;20452;-68
2021/07/03 11:17:42;;;;;;;3.10;2.77;;;;;;;23.76;56.20;101015.06;5014179;28;20448;-70
2021/07/03 11:20:10;;;;;;;3.07;2.43;;;;;;;23.73;57.29;101016.63;5013351;28;20853;-69
2021/07/03 11:22:43;;;;;;;3.10;2.37;;;;;;;23.76;56.27;101015.84;5014597;28;20851;-68